KJMS

Jamestown Regional Airport

Jamestown, North Dakota, USA
KJMS 141734Z 1418/1518 26008KT P6SM SKC FM151300 17010KT P6SM FEW250
Issued Valid From Valid To
Dec-14 @ 17:34 UTC
(4 hours ago)
Dec-14 @ 18:00 UTC
(4 hours ago)
Dec-15 @ 18:00 UTC
(in 20 hours)
Dec-14 @ 18:00 to Dec-15 @ 13:00
KJMS 141734Z 1418/1518 26008KT P6SM SKC
Wind Visibility Clouds
260° at 8 knots Greater than 6 miles
  • Clear skies
From Dec-15 @ 13:00 to Dec-15 @ 18:00
FM151300 17010KT P6SM FEW250
Wind Visibility Clouds
170° at 10 knots Greater than 6 miles
  • Few at 25,000' AGL
KJMS 141734Z 1418/1518 26008KT P6SM SKC FM151300 17010KT P6SM FEW250
Issued Dec-14 @ 17:34 UTC
(4 hours ago)
Valid From Dec-14 @ 18:00 UTC
(4 hours ago)
Valid To Dec-15 @ 18:00 UTC
(in 20 hours)
Dec-14 @ 18:00 - Dec-15 @ 13:00
Wind Visibility
260° at 8 knots Greater than 6 miles
Clouds
  • Clear skies
From Dec-15 @ 13:00 - Dec-15 @ 18:00
Wind Visibility
170° at 10 knots Greater than 6 miles
Clouds
  • Few at 25,000' AGL